Time;durP1;ratioP1;P1;durP2;ratioP2;P2;SDS_P1;SDS_P2;PMS_P1;PMS_P2;Temp;Humidity;BMP_temperature;BMP_pressure;BME280_temperature;BME280_humidity;BME280_pressure;Samples;Min_cycle;Max_cycle;Signal;HPM_P1;HPM_P2
2022/02/19 00:01:19;;;;;;;13.13;2.90;;;22.00;99.90;;;;;;5072799;28;20029;-76
2022/02/19 00:03:47;;;;;;;15.93;3.47;;;22.10;99.90;;;;;;5073235;28;20367;-76
2022/02/19 00:06:14;;;;;;;13.52;3.35;;;22.20;99.90;;;;;;5074131;28;20028;-76
2022/02/19 00:08:42;;;;;;;13.65;3.03;;;22.20;99.90;;;;;;5073103;28;20032;-75
2022/02/19 00:11:09;;;;;;;11.93;3.30;;;22.00;99.90;;;;;;5073798;28;20017;-75
2022/02/19 00:13:37;;;;;;;16.73;4.10;;;22.00;99.90;;;;;;5073954;28;20055;-74
2022/02/19 00:16:05;;;;;;;11.65;3.10;;;22.00;99.90;;;;;;5072693;28;20102;-75
2022/02/19 00:18:33;;;;;;;11.73;3.60;;;22.00;99.90;;;;;;5073603;28;20036;-75
2022/02/19 00:21:01;;;;;;;13.90;3.55;;;22.00;99.90;;;;;;5074302;28;20390;-76
2022/02/19 00:23:29;;;;;;;14.68;3.60;;;22.10;99.90;;;;;;5073470;28;20078;-78
2022/02/19 00:25:57;;;;;;;13.60;3.67;;;22.00;99.90;;;;;;5072432;28;20059;-75
2022/02/19 00:28:26;;;;;;;15.00;3.88;;;21.90;99.90;;;;;;5056033;28;20036;-75
2022/02/19 00:30:54;;;;;;;15.55;4.40;;;21.80;99.90;;;;;;5073025;28;20027;-75
2022/02/19 00:33:24;;;;;;;17.92;4.28;;;21.80;99.90;;;;;;5072147;28;20090;-75
2022/02/19 00:35:52;;;;;;;16.73;4.03;;;21.80;99.90;;;;;;5072048;28;20020;-75
2022/02/19 00:38:20;;;;;;;16.52;4.13;;;21.80;99.90;;;;;;5072106;28;20043;-75
2022/02/19 00:40:48;;;;;;;14.25;3.60;;;21.70;99.90;;;;;;5073392;28;20082;-76
2022/02/19 00:43:16;;;;;;;15.10;5.05;;;21.50;99.90;;;;;;5072006;28;20036;-76
2022/02/19 00:45:44;;;;;;;19.50;7.13;;;21.70;99.90;;;;;;5071959;28;20474;-75
2022/02/19 00:48:12;;;;;;;15.98;4.53;;;21.70;99.90;;;;;;5073329;28;20020;-76
2022/02/19 00:50:39;;;;;;;22.92;9.77;;;21.60;99.90;;;;;;5073155;28;20019;-74
2022/02/19 00:53:06;;;;;;;16.95;4.22;;;21.60;99.90;;;;;;5071928;28;20021;-76
2022/02/19 00:55:33;;;;;;;26.40;13.60;;;21.70;99.90;;;;;;5073274;28;20066;-74
2022/02/19 00:58:01;;;;;;;45.92;28.90;;;21.70;99.90;;;;;;5071955;28;20112;-75
2022/02/19 01:00:28;;;;;;;25.83;11.00;;;21.70;99.90;;;;;;5071797;28;20021;-74
2022/02/19 01:02:55;;;;;;;15.95;3.75;;;21.60;99.90;;;;;;5071917;28;20032;-75
2022/02/19 01:05:23;;;;;;;18.48;3.95;;;21.60;99.90;;;;;;5072854;28;20048;-75
2022/02/19 01:07:50;;;;;;;27.55;9.35;;;21.60;99.90;;;;;;5071691;28;20021;-77
2022/02/19 01:10:18;;;;;;;17.70;4.57;;;21.70;99.90;;;;;;5071834;28;20021;-75
2022/02/19 01:12:46;;;;;;;13.55;3.13;;;21.50;99.90;;;;;;5071618;28;20024;-76
2022/02/19 01:15:14;;;;;;;26.00;10.65;;;21.50;99.90;;;;;;5071561;28;20028;-76
2022/02/19 01:17:41;;;;;;;56.00;24.83;;;21.60;99.90;;;;;;5071715;28;20111;-76
2022/02/19 01:20:11;;;;;;;18.50;4.18;;;21.60;99.90;;;;;;5071626;28;20115;-76
2022/02/19 01:22:41;;;;;;;17.50;4.13;;;21.60;99.90;;;;;;5071612;28;20024;-76
2022/02/19 01:25:10;;;;;;;22.60;8.88;;;21.70;99.90;;;;;;5071253;28;20452;-76
2022/02/19 01:27:39;;;;;;;15.70;4.07;;;21.80;99.90;;;;;;5055168;28;20025;-75
2022/02/19 01:30:07;;;;;;;20.88;5.45;;;22.00;99.90;;;;;;5071605;28;20033;-75
2022/02/19 01:32:35;;;;;;;13.43;3.80;;;22.20;99.90;;;;;;5072045;28;20021;-76
2022/02/19 01:35:05;;;;;;;13.57;3.95;;;22.40;99.90;;;;;;5072745;28;20032;-76
2022/02/19 01:37:32;;;;;;;16.08;3.75;;;22.60;99.90;;;;;;5071345;28;20047;-76
2022/02/19 01:40:00;;;;;;;14.02;3.50;;;22.90;99.90;;;;;;5072703;28;20426;-75
2022/02/19 01:42:27;;;;;;;16.60;4.00;;;23.00;99.90;;;;;;5072888;28;20025;-75
2022/02/19 01:44:55;;;;;;;15.27;3.20;;;23.10;99.90;;;;;;5076443;28;20029;-74
2022/02/19 01:47:22;;;;;;;17.33;3.72;;;23.20;99.90;;;;;;5076583;28;20067;-76
2022/02/19 01:49:50;;;;;;;9.48;2.78;;;23.30;99.90;;;;;;5075182;28;20021;-76
2022/02/19 01:52:18;;;;;;;14.95;3.72;;;23.20;99.90;;;;;;5076507;28;20021;-76
2022/02/19 01:54:47;;;;;;;11.52;3.67;;;23.10;99.90;;;;;;5074943;28;20029;-76
2022/02/19 01:57:16;;;;;;;16.27;3.47;;;23.10;99.90;;;;;;5076382;28;20035;-76
2022/02/19 01:59:43;;;;;;;13.02;3.60;;;22.90;99.90;;;;;;5074966;28;20166;-76
2022/02/19 02:02:11;;;;;;;12.20;2.72;;;22.90;99.90;;;;;;5075025;28;20028;-74
2022/02/19 02:04:38;;;;;;;13.30;3.40;;;23.10;99.90;;;;;;5075965;28;20035;-75
2022/02/19 02:07:06;;;;;;;14.93;3.60;;;23.10;99.90;;;;;;5076044;28;20099;-75
2022/02/19 02:09:36;;;;;;;15.02;2.85;;;23.00;99.90;;;;;;5074540;28;20063;-75
2022/02/19 02:12:04;;;;;;;10.23;2.85;;;23.20;99.90;;;;;;5074911;28;20116;-75
2022/02/19 02:14:36;;;;;;;10.25;3.20;;;23.20;99.90;;;;;;5076125;28;20021;-75
2022/02/19 02:17:04;;;;;;;12.95;3.13;;;23.10;99.90;;;;;;5074631;28;20078;-75
2022/02/19 02:19:31;;;;;;;13.35;3.13;;;23.10;99.90;;;;;;5073381;28;20138;-75
2022/02/19 02:21:58;;;;;;;12.95;2.95;;;23.30;99.90;;;;;;5075913;28;20074;-76
2022/02/19 02:24:27;;;;;;;13.13;3.20;;;23.20;99.90;;;;;;5075533;28;20059;-75
2022/02/19 02:26:55;;;;;;;13.40;3.75;;;23.10;99.90;;;;;;5074351;28;20131;-76
2022/02/19 02:29:23;;;;;;;12.13;3.17;;;22.90;99.90;;;;;;5074429;28;20024;-76
2022/02/19 02:31:50;;;;;;;11.80;2.63;;;23.10;99.90;;;;;;5075728;28;20385;-76
2022/02/19 02:37:39;;;;;;;12.75;3.13;;;23.30;99.90;;;;;;5076100;28;20035;-77
2022/02/19 02:40:08;;;;;;;12.55;3.40;;;23.50;99.90;;;;;;5074250;28;20029;-76
2022/02/19 02:42:35;;;;;;;14.00;3.13;;;23.90;99.90;;;;;;5074305;28;20115;-76
2022/02/19 02:45:03;;;;;;;13.07;2.85;;;23.90;99.90;;;;;;5075487;28;20023;-77
2022/02/19 02:47:30;;;;;;;12.55;2.97;;;24.00;99.90;;;;;;5074240;28;20533;-77
2022/02/19 02:49:57;;;;;;;11.38;3.00;;;23.90;99.90;;;;;;5074002;28;20048;-77
2022/02/19 02:52:25;;;;;;;10.48;3.65;;;24.30;99.90;;;;;;5073779;28;20485;-76
2022/02/19 02:54:53;;;;;;;14.63;3.47;;;24.40;99.90;;;;;;5074072;28;20028;-77
2022/02/19 02:57:20;;;;;;;14.00;3.78;;;24.80;99.90;;;;;;5075204;28;20070;-77
2022/02/19 02:59:48;;;;;;;9.85;2.72;;;24.80;99.90;;;;;;5073738;28;20021;-77
2022/02/19 03:02:15;;;;;;;10.88;3.08;;;25.00;99.90;;;;;;5073934;28;20033;-76
2022/02/19 03:04:42;;;;;;;14.38;3.47;;;25.20;99.90;;;;;;5073664;28;20028;-77
2022/02/19 03:07:10;;;;;;;15.45;6.05;;;25.00;99.90;;;;;;5073699;28;20032;-76
2022/02/19 03:09:37;;;;;;;11.70;3.38;;;25.40;99.90;;;;;;5074950;28;20048;-77
2022/02/19 03:12:05;;;;;;;12.85;3.17;;;25.60;99.90;;;;;;5075099;28;20055;-76
2022/02/19 03:14:32;;;;;;;10.75;2.95;;;25.90;99.90;;;;;;5073995;28;20056;-78
2022/02/19 03:16:59;;;;;;;10.13;3.17;;;26.10;99.90;;;;;;5075163;28;20048;-78
2022/02/19 03:19:27;;;;;;;10.95;3.17;;;26.20;99.90;;;;;;5073559;28;20029;-79
2022/02/19 03:21:54;;;;;;;11.65;2.88;;;26.50;99.90;;;;;;5073894;28;20043;-79
2022/02/19 03:24:22;;;;;;;9.68;3.55;;;26.50;99.90;;;;;;5076737;28;20040;-79
2022/02/19 03:26:50;;;;;;;12.98;3.38;;;26.80;99.90;;;;;;5075421;28;20025;-80
2022/02/19 03:29:17;;;;;;;10.18;2.13;;;27.10;99.90;;;;;;5077175;28;20017;-78
2022/02/19 03:31:44;;;;;;;9.50;2.20;;;26.80;99.90;;;;;;5075968;28;20025;-79
2022/02/19 03:34:12;;;;;;;9.50;2.53;;;26.40;99.90;;;;;;5075053;28;20107;-77
2022/02/19 03:36:39;;;;;;;13.25;2.80;;;26.10;99.90;;;;;;5076487;28;20020;-78
2022/02/19 03:39:07;;;;;;;11.35;2.30;;;26.30;99.90;;;;;;5074842;28;20078;-78
2022/02/19 03:41:35;;;;;;;9.48;2.42;;;26.10;99.90;;;;;;5076778;28;20501;-78
2022/02/19 03:44:03;;;;;;;9.93;2.60;;;25.80;99.90;;;;;;5075181;28;20385;-79
2022/02/19 03:46:31;;;;;;;11.90;2.97;;;25.50;99.90;;;;;;5073594;28;20090;-77
2022/02/19 03:48:59;;;;;;;9.70;2.45;;;25.30;99.90;;;;;;5075623;28;20076;-79
2022/02/19 03:51:27;;;;;;;14.18;2.85;;;24.70;99.90;;;;;;5058652;28;20020;-81
2022/02/19 03:53:54;;;;;;;12.88;2.55;;;24.60;99.90;;;;;;5074698;28;20032;-80
2022/02/19 03:56:21;;;;;;;10.68;2.80;;;24.20;99.90;;;;;;5073239;28;20028;-78
2022/02/19 03:58:49;;;;;;;14.23;3.38;;;23.90;99.90;;;;;;5075003;28;20025;-79
2022/02/19 04:01:16;;;;;;;10.73;2.80;;;23.50;99.90;;;;;;5073472;28;20028;-80
2022/02/19 04:03:44;;;;;;;12.18;2.70;;;23.30;99.90;;;;;;5073105;28;20067;-78
2022/02/19 04:06:14;;;;;;;15.10;2.75;;;23.10;99.90;;;;;;5074999;28;20021;-77
2022/02/19 04:08:41;;;;;;;11.00;2.55;;;23.00;99.90;;;;;;5073587;28;20111;-78
2022/02/19 04:11:09;;;;;;;14.48;3.05;;;23.00;99.90;;;;;;5074876;28;20029;-75
2022/02/19 04:13:36;;;;;;;11.68;2.70;;;23.00;99.90;;;;;;5073850;28;20018;-73
2022/02/19 04:16:04;;;;;;;10.43;2.42;;;23.00;99.90;;;;;;5072415;28;20469;-78
2022/02/19 04:18:31;;;;;;;11.43;2.78;;;23.10;99.90;;;;;;5073894;28;20028;-75
2022/02/19 04:21:02;;;;;;;11.82;2.60;;;23.10;99.90;;;;;;5074181;28;20028;-76
2022/02/19 04:23:29;;;;;;;11.57;2.42;;;23.10;99.90;;;;;;5075131;28;20136;-77
2022/02/19 04:25:57;;;;;;;11.77;2.85;;;23.30;99.90;;;;;;5073965;28;20074;-75
2022/02/19 04:28:26;;;;;;;8.52;2.15;;;23.30;99.90;;;;;;5072539;28;20119;-81
2022/02/19 04:30:54;;;;;;;11.32;3.08;;;23.30;99.90;;;;;;5073943;28;20020;-79
2022/02/19 04:33:22;;;;;;;10.43;2.40;;;23.20;99.90;;;;;;5073712;28;20024;-79
2022/02/19 04:35:49;;;;;;;8.80;2.70;;;23.10;99.90;;;;;;5076390;28;20390;-79
2022/02/19 04:38:19;;;;;;;11.20;2.53;;;23.00;99.90;;;;;;5075887;28;20529;-80
2022/02/19 04:40:46;;;;;;;;;;;23.00;99.90;;;;;;5074058;28;20025;-77
2022/02/19 04:43:13;;;;;;;11.13;2.58;;;22.90;99.90;;;;;;5072690;28;19911;-78
2022/02/19 04:45:41;;;;;;;8.30;1.98;;;22.70;99.90;;;;;;5072944;28;20429;-78
2022/02/19 04:48:09;;;;;;;13.07;2.65;;;22.80;99.90;;;;;;5057289;28;20025;-78
2022/02/19 04:50:36;;;;;;;13.93;2.53;;;22.80;99.90;;;;;;5073639;28;20042;-79
2022/02/19 04:53:05;;;;;;;10.70;2.60;;;22.80;99.90;;;;;;5073665;28;20012;-76
2022/02/19 04:55:34;;;;;;;12.55;2.45;;;22.90;99.90;;;;;;5072106;28;20092;-77
2022/02/19 04:58:02;;;;;;;14.15;2.47;;;22.90;99.90;;;;;;5072132;28;20027;-77
2022/02/19 05:00:29;;;;;;;10.30;2.65;;;23.00;99.90;;;;;;5071804;28;20161;-78
2022/02/19 05:02:57;;;;;;;9.95;2.30;;;23.00;99.90;;;;;;5072892;28;20025;-77
2022/02/19 05:05:25;;;;;;;10.50;2.70;;;23.00;99.90;;;;;;5072767;28;20487;-76
2022/02/19 05:07:52;;;;;;;10.90;2.42;;;22.90;99.90;;;;;;5071788;28;20017;-77
2022/02/19 05:10:19;;;;;;;11.70;2.80;;;22.90;99.90;;;;;;5073124;28;20107;-76
2022/02/19 05:12:48;;;;;;;15.25;2.78;;;22.80;99.90;;;;;;5073032;28;20016;-76
2022/02/19 05:15:16;;;;;;;11.98;2.50;;;22.70;99.90;;;;;;5071666;28;20025;-77
2022/02/19 05:17:45;;;;;;;11.57;2.72;;;22.70;99.90;;;;;;5076757;28;20032;-77
2022/02/19 05:20:15;;;;;;;13.35;2.70;;;22.60;99.90;;;;;;5077099;28;20366;-77
2022/02/19 05:22:42;;;;;;;11.47;2.40;;;22.60;99.90;;;;;;5077157;28;20381;-77
2022/02/19 05:25:10;;;;;;;14.35;2.88;;;22.60;99.90;;;;;;5076697;28;20049;-76
2022/02/19 05:27:38;;;;;;;13.45;2.83;;;22.50;99.90;;;;;;5075803;28;20046;-77
2022/02/19 05:30:07;;;;;;;12.85;2.45;;;22.40;99.90;;;;;;5077133;28;20431;-78
2022/02/19 05:32:34;;;;;;;12.85;3.55;;;22.40;99.90;;;;;;5076824;28;20427;-77
2022/02/19 05:35:05;;;;;;;8.95;2.72;;;22.50;99.90;;;;;;5076757;28;20458;-76
2022/02/19 05:37:33;;;;;;;12.00;2.30;;;22.50;99.90;;;;;;5076545;28;20103;-77
2022/02/19 05:40:00;;;;;;;11.02;2.70;;;22.50;99.90;;;;;;5076667;28;20389;-76
2022/02/19 05:42:28;;;;;;;12.48;2.78;;;22.60;99.90;;;;;;5075275;28;20389;-76
2022/02/19 05:44:55;;;;;;;10.95;2.55;;;22.60;99.90;;;;;;5076484;28;20124;-77
2022/02/19 05:47:23;;;;;;;10.70;2.47;;;22.60;99.90;;;;;;5075345;28;20502;-77
2022/02/19 05:49:51;;;;;;;10.75;2.65;;;22.50;99.90;;;;;;5075223;28;20025;-75
2022/02/19 05:52:19;;;;;;;14.95;2.58;;;22.50;99.90;;;;;;5076296;28;20017;-77
2022/02/19 05:54:46;;;;;;;10.57;2.60;;;22.50;99.90;;;;;;5076409;28;20016;-76
2022/02/19 05:57:14;;;;;;;10.52;2.15;;;22.60;99.90;;;;;;5076117;28;20024;-77
2022/02/19 05:59:41;;;;;;;9.98;2.67;;;22.50;99.90;;;;;;5075188;28;20032;-77
2022/02/19 06:02:08;;;;;;;13.23;2.50;;;22.60;99.90;;;;;;5075025;28;20456;-77
2022/02/19 06:04:36;;;;;;;11.98;2.63;;;22.60;99.90;;;;;;5076112;28;20038;-77
2022/02/19 06:07:03;;;;;;;11.70;2.55;;;22.50;99.90;;;;;;5076167;28;20017;-77
2022/02/19 06:09:31;;;;;;;11.45;2.65;;;22.50;99.90;;;;;;5076074;28;20078;-77
2022/02/19 06:11:58;;;;;;;10.85;2.10;;;22.60;99.90;;;;;;5076048;28;20021;-77
2022/02/19 06:14:25;;;;;;;12.00;2.30;;;22.50;99.90;;;;;;5074597;28;20028;-77
2022/02/19 06:16:53;;;;;;;11.60;2.67;;;22.40;99.90;;;;;;5074564;28;20389;-77
2022/02/19 06:19:20;;;;;;;10.10;2.45;;;22.40;99.90;;;;;;5076100;28;20021;-77
2022/02/19 06:21:48;;;;;;;15.77;3.83;;;22.50;99.90;;;;;;5075998;28;20052;-77
2022/02/19 06:24:15;;;;;;;14.27;3.90;;;22.50;99.90;;;;;;5075433;28;20094;-77
2022/02/19 06:26:43;;;;;;;8.20;2.58;;;22.50;99.90;;;;;;5075782;28;20023;-77
2022/02/19 06:29:10;;;;;;;14.98;2.80;;;22.60;99.90;;;;;;5075179;28;20021;-78
2022/02/19 06:31:37;;;;;;;10.38;2.40;;;22.60;99.90;;;;;;5075797;28;20029;-78
2022/02/19 06:34:05;;;;;;;12.02;2.00;;;22.60;99.90;;;;;;5074320;28;20028;-78
2022/02/19 06:36:32;;;;;;;10.20;2.53;;;22.60;99.90;;;;;;5074444;28;20426;-78
2022/02/19 06:38:59;;;;;;;13.07;3.03;;;22.60;99.90;;;;;;5075635;28;20020;-77
2022/02/19 06:41:27;;;;;;;10.90;2.83;;;22.60;99.90;;;;;;5075622;28;20029;-76
2022/02/19 06:43:54;;;;;;;12.60;3.67;;;22.70;99.90;;;;;;5075356;28;20060;-78
2022/02/19 06:46:21;;;;;;;12.27;2.97;;;22.70;99.90;;;;;;5074028;28;20474;-77
2022/02/19 06:48:49;;;;;;;10.30;2.55;;;22.60;99.90;;;;;;5074080;28;20032;-77
2022/02/19 06:51:17;;;;;;;10.00;2.10;;;22.60;99.90;;;;;;5074188;28;20024;-77
2022/02/19 06:53:45;;;;;;;11.38;2.30;;;22.60;99.90;;;;;;5075445;28;20024;-76
2022/02/19 06:56:12;;;;;;;13.90;2.28;;;22.60;99.90;;;;;;5075447;28;20474;-76
2022/02/19 06:58:40;;;;;;;7.97;2.20;;;22.50;99.90;;;;;;5075223;28;20142;-77
2022/02/19 07:01:07;;;;;;;9.57;2.38;;;22.60;99.90;;;;;;5075268;28;20078;-77
2022/02/19 07:03:34;;;;;;;9.77;2.60;;;22.60;99.90;;;;;;5075159;28;20038;-77
2022/02/19 07:06:02;;;;;;;12.45;2.28;;;22.60;99.90;;;;;;5075180;28;20016;-77
2022/02/19 07:08:29;;;;;;;9.50;1.88;;;22.60;99.90;;;;;;5073882;28;20036;-77
2022/02/19 07:10:56;;;;;;;12.48;2.42;;;22.50;99.90;;;;;;5075240;28;20070;-75
2022/02/19 07:13:24;;;;;;;12.27;2.40;;;22.40;99.90;;;;;;5075143;28;20032;-76
2022/02/19 07:15:51;;;;;;;12.07;2.53;;;22.40;99.90;;;;;;5075008;28;20063;-76
2022/02/19 07:18:20;;;;;;;14.50;2.55;;;22.40;99.90;;;;;;5074998;28;20028;-76
2022/02/19 07:20:47;;;;;;;14.20;2.40;;;22.40;99.90;;;;;;5074803;28;20388;-75
2022/02/19 07:23:15;;;;;;;13.10;2.42;;;22.40;99.90;;;;;;5073297;28;20054;-75
2022/02/19 07:25:43;;;;;;;12.23;2.83;;;22.30;99.90;;;;;;5073466;28;20226;-74
2022/02/19 07:28:10;;;;;;;9.07;2.17;;;22.30;99.90;;;;;;5074814;28;20016;-74
2022/02/19 07:30:39;;;;;;;10.35;2.53;;;22.30;99.90;;;;;;5073291;28;20393;-73
2022/02/19 07:33:09;;;;;;;10.82;1.77;;;22.40;99.90;;;;;;5073337;28;20036;-73
2022/02/19 07:35:36;;;;;;;12.13;2.45;;;22.40;99.90;;;;;;5074598;28;20079;-74
2022/02/19 07:38:05;;;;;;;9.23;1.75;;;22.40;99.90;;;;;;5074259;28;20032;-74
2022/02/19 07:40:33;;;;;;;12.60;2.45;;;22.40;99.90;;;;;;5073284;28;20048;-74
2022/02/19 07:43:00;;;;;;;10.95;2.28;;;22.30;99.90;;;;;;5074409;28;20074;-74
2022/02/19 07:45:28;;;;;;;12.10;2.30;;;22.20;99.90;;;;;;5072848;28;20491;-73
2022/02/19 07:47:55;;;;;;;12.07;2.42;;;22.20;99.90;;;;;;5072981;28;20016;-73
2022/02/19 07:58:43;;;;;;;15.43;3.70;;;22.10;99.90;;;;;;5074144;28;20551;-74
2022/02/19 08:01:12;;;;;;;17.23;3.55;;;22.10;99.90;;;;;;5073879;28;20020;-74
2022/02/19 08:03:40;;;;;;;13.75;3.00;;;22.10;99.90;;;;;;5072669;28;20025;-75
2022/02/19 08:06:08;;;;;;;7.32;2.60;;;22.00;99.90;;;;;;5073968;28;20393;-75
2022/02/19 08:08:37;;;;;;;10.82;3.13;;;22.00;99.90;;;;;;5073785;28;20059;-74
2022/02/19 08:11:05;;;;;;;14.65;4.20;;;22.00;99.90;;;;;;5073746;28;20024;-74
2022/02/19 08:13:33;;;;;;;13.30;5.70;;;22.00;99.90;;;;;;5073659;28;20078;-73
2022/02/19 08:16:01;;;;;;;12.52;3.83;;;22.00;99.90;;;;;;5072588;28;20021;-74
2022/02/19 08:18:28;;;;;;;13.63;3.67;;;22.00;99.90;;;;;;5072497;28;20029;-75
2022/02/19 08:20:55;;;;;;;12.57;3.08;;;21.90;99.90;;;;;;5072196;28;20066;-75
2022/02/19 08:23:23;;;;;;;9.70;2.10;;;21.90;99.90;;;;;;5073478;28;20024;-74
2022/02/19 08:25:51;;;;;;;10.65;3.22;;;21.90;99.90;;;;;;5073504;28;20033;-74
2022/02/19 08:28:18;;;;;;;10.10;2.22;;;21.90;99.90;;;;;;5072321;28;20031;-74
2022/02/19 08:30:47;;;;;;;10.05;2.10;;;21.90;99.90;;;;;;5072331;28;20158;-74
2022/02/19 08:33:14;;;;;;;11.48;2.20;;;21.80;99.90;;;;;;5073492;28;20025;-73
2022/02/19 08:35:42;;;;;;;9.63;2.40;;;21.80;99.90;;;;;;5073522;28;20107;-73
2022/02/19 08:38:11;;;;;;;15.52;3.08;;;21.80;99.90;;;;;;5072573;28;20043;-73
2022/02/19 08:40:42;;;;;;;10.57;2.28;;;21.80;99.90;;;;;;5073361;28;20013;-74
2022/02/19 08:43:10;;;;;;;10.45;2.40;;;21.80;99.90;;;;;;5073319;28;20063;-73
2022/02/19 08:45:41;;;;;;;10.70;2.33;;;21.80;99.90;;;;;;5055158;28;20504;-73
2022/02/19 08:48:11;;;;;;;15.25;3.45;;;21.80;99.90;;;;;;5073078;28;20020;-74
2022/02/19 08:50:40;;;;;;;13.07;2.77;;;21.80;99.90;;;;;;5072820;28;20023;-76
2022/02/19 08:53:08;;;;;;;10.30;2.22;;;21.80;99.90;;;;;;5072922;28;20027;-72
2022/02/19 08:55:36;;;;;;;10.88;2.50;;;21.80;99.90;;;;;;5073263;28;20390;-74
2022/02/19 08:58:04;;;;;;;11.07;2.05;;;21.80;99.90;;;;;;5071588;28;20032;-75
2022/02/19 09:00:31;;;;;;;7.95;1.90;;;21.80;99.90;;;;;;5071643;28;20463;-74
2022/02/19 09:02:59;;;;;;;7.65;1.90;;;21.80;99.90;;;;;;5071503;28;20035;-75
2022/02/19 09:05:26;;;;;;;10.63;3.15;;;21.80;99.90;;;;;;5071526;28;20123;-75
2022/02/19 09:07:54;;;;;;;7.15;2.40;;;21.80;99.90;;;;;;5073042;28;20024;-75
2022/02/19 09:10:22;;;;;;;9.82;2.50;;;21.80;99.90;;;;;;5073027;28;20108;-75
2022/02/19 09:12:49;;;;;;;8.18;2.13;;;21.80;99.90;;;;;;5073031;28;20334;-74
2022/02/19 09:15:20;;;;;;;10.23;2.75;;;21.80;99.90;;;;;;5073012;28;20075;-75
2022/02/19 09:17:48;;;;;;;9.32;2.42;;;21.80;99.90;;;;;;5072997;28;20017;-74
2022/02/19 09:20:18;;;;;;;9.10;2.25;;;21.80;99.90;;;;;;5073054;28;20036;-75
2022/02/19 09:22:46;;;;;;;10.38;2.40;;;21.80;99.90;;;;;;5071736;28;20031;-75
2022/02/19 09:25:14;;;;;;;11.75;2.38;;;21.80;99.90;;;;;;5071363;28;20516;-74
2022/02/19 09:27:42;;;;;;;7.32;2.00;;;21.80;99.90;;;;;;5073003;28;20021;-74
2022/02/19 09:30:12;;;;;;;10.32;2.08;;;21.90;99.90;;;;;;5072746;28;20023;-75
2022/02/19 09:32:40;;;;;;;8.07;2.17;;;21.90;99.90;;;;;;5072710;28;20021;-75
2022/02/19 09:35:08;;;;;;;11.52;2.53;;;21.80;99.90;;;;;;5071567;28;20024;-75
2022/02/19 09:37:36;;;;;;;10.82;1.90;;;21.90;99.90;;;;;;5072811;28;20036;-74
2022/02/19 09:40:07;;;;;;;8.77;2.33;;;21.80;99.90;;;;;;5072675;28;20021;-74
2022/02/19 09:42:35;;;;;;;11.65;2.20;;;21.80;99.90;;;;;;5071092;28;20130;-75
2022/02/19 09:45:03;;;;;;;7.60;2.10;;;21.90;99.90;;;;;;5072628;28;20056;-75
2022/02/19 09:47:32;;;;;;;6.85;1.80;;;21.90;99.90;;;;;;5072491;28;20031;-75
2022/02/19 09:50:01;;;;;;;8.70;1.50;;;21.90;99.90;;;;;;5072661;28;20095;-76
2022/02/19 09:52:28;;;;;;;8.32;1.50;;;21.90;99.90;;;;;;5071522;28;20043;-75
2022/02/19 09:55:01;;;;;;;7.03;1.88;;;21.80;99.90;;;;;;5071311;28;20047;-75
2022/02/19 09:57:28;;;;;;;5.65;1.33;;;21.90;99.90;;;;;;5072560;28;20027;-74
2022/02/19 09:59:56;;;;;;;5.55;1.67;;;21.80;99.90;;;;;;5071147;28;20467;-74
2022/02/19 10:02:34;;;;;;;9.88;1.75;;;21.80;99.90;;;;;;5072528;28;20021;-74
2022/02/19 10:05:11;;;;;;;7.38;1.70;;;21.80;99.90;;;;;;5076175;28;20025;-74
2022/02/19 10:07:39;;;;;;;8.25;1.50;;;21.80;99.90;;;;;;5076335;28;20052;-73
2022/02/19 10:10:08;;;;;;;8.50;1.85;;;21.80;99.90;;;;;;5075127;28;20063;-75
2022/02/19 10:12:48;;;;;;;8.50;1.77;;;21.90;99.90;;;;;;5074863;28;20020;-75
2022/02/19 10:15:15;;;;;;;14.73;2.35;;;21.90;99.90;;;;;;5076094;28;20016;-75
2022/02/19 10:17:42;;;;;;;7.13;1.60;;;21.90;99.90;;;;;;5076135;28;20036;-75
2022/02/19 10:20:14;;;;;;;10.52;1.83;;;21.90;99.90;;;;;;5074666;28;20435;-74
2022/02/19 10:22:46;;;;;;;12.35;2.10;;;21.90;99.90;;;;;;5074588;28;20033;-74
2022/02/19 10:25:16;;;;;;;11.55;2.15;;;21.90;99.90;;;;;;5074617;28;20097;-74
2022/02/19 10:27:56;;;;;;;10.52;2.00;;;21.90;99.90;;;;;;5074675;28;20020;-75
2022/02/19 10:30:25;;;;;;;7.20;2.05;;;21.90;99.90;;;;;;5075905;28;20048;-75
2022/02/19 10:32:56;;;;;;;7.85;1.70;;;21.90;99.90;;;;;;5075841;28;20024;-74
2022/02/19 10:35:40;;;;;;;8.15;1.77;;;21.80;99.90;;;;;;5075757;28;20047;-74
2022/02/19 10:38:14;;;;;;;9.95;2.03;;;21.90;99.90;;;;;;5074457;28;20036;-74
2022/02/19 10:40:46;;;;;;;10.27;1.80;;;21.80;99.90;;;;;;5074499;28;20093;-75
2022/02/19 10:43:19;;;;;;;7.25;1.55;;;21.80;99.90;;;;;;5074349;28;20113;-74
2022/02/19 10:46:01;;;;;;;8.85;1.85;;;21.90;99.90;;;;;;5075549;28;20385;-76
2022/02/19 10:48:33;;;;;;;7.88;1.63;;;21.80;99.90;;;;;;5074403;28;20158;-74
2022/02/19 10:51:11;;;;;;;11.30;1.85;;;21.80;99.90;;;;;;5075535;28;20012;-75
2022/02/19 10:53:39;;;;;;;10.85;1.98;;;21.80;99.90;;;;;;5074215;28;20131;-75
2022/02/19 10:56:12;;;;;;;7.75;1.73;;;21.80;99.90;;;;;;5075492;28;20025;-75
2022/02/19 10:59:00;;;;;;;12.10;1.73;;;21.80;99.90;;;;;;5075358;28;20024;-76
2022/02/19 11:01:28;;;;;;;7.00;1.83;;;21.80;99.90;;;;;;5075098;28;20032;-75
2022/02/19 11:03:57;;;;;;;10.32;1.98;;;21.80;99.90;;;;;;5073825;28;20021;-75
2022/02/19 11:06:25;;;;;;;7.47;1.60;;;21.80;99.90;;;;;;5073819;28;20031;-75
2022/02/19 11:08:53;;;;;;;13.27;2.13;;;21.80;99.90;;;;;;5073829;28;20032;-74
2022/02/19 11:11:21;;;;;;;9.55;1.48;;;21.80;99.90;;;;;;5075129;28;20016;-74
2022/02/19 11:13:49;;;;;;;11.57;1.67;;;21.80;99.90;;;;;;5073634;28;20029;-74
2022/02/19 11:16:17;;;;;;;9.27;2.08;;;21.80;99.90;;;;;;5073706;28;20036;-74
2022/02/19 11:18:45;;;;;;;9.77;2.00;;;21.80;99.90;;;;;;5074966;28;20036;-74
2022/02/19 11:21:12;;;;;;;10.00;2.45;;;21.80;99.90;;;;;;5073711;28;20025;-74
2022/02/19 11:23:41;;;;;;;15.65;2.70;;;21.80;99.90;;;;;;5074646;28;20045;-75
2022/02/19 11:26:09;;;;;;;8.32;2.00;;;21.80;99.90;;;;;;5073661;28;20029;-74
2022/02/19 11:28:37;;;;;;;11.45;2.00;;;21.80;99.90;;;;;;5074850;28;20017;-75
2022/02/19 11:31:10;;;;;;;11.63;1.98;;;21.80;99.90;;;;;;5074552;28;20137;-74
2022/02/19 11:33:40;;;;;;;11.18;1.67;;;21.80;99.90;;;;;;5073078;28;20017;-74
2022/02/19 11:36:11;;;;;;;10.23;1.95;;;21.80;99.90;;;;;;5056986;28;20032;-74
2022/02/19 11:38:55;;;;;;;9.50;2.20;;;21.80;99.90;;;;;;5073394;28;20024;-74
2022/02/19 11:41:43;;;;;;;11.55;1.73;;;21.80;99.90;;;;;;5073426;28;20085;-74
2022/02/19 11:44:18;;;;;;;9.18;1.60;;;21.80;99.90;;;;;;5074446;28;20025;-74
2022/02/19 11:46:46;;;;;;;8.63;1.55;;;21.80;99.90;;;;;;5073169;28;20409;-75
2022/02/19 11:49:22;;;;;;;6.50;1.65;;;21.80;99.90;;;;;;5072938;28;20021;-75
2022/02/19 11:52:07;;;;;;;9.93;2.10;;;21.80;99.90;;;;;;5074237;28;20052;-74
2022/02/19 11:54:35;;;;;;;9.80;2.45;;;21.80;99.90;;;;;;5072960;28;20021;-75
2022/02/19 11:57:17;;;;;;;10.45;1.90;;;21.80;99.90;;;;;;5073088;28;20090;-75
2022/02/19 11:59:47;;;;;;;7.00;1.50;;;21.70;99.90;;;;;;5074312;28;20393;-74
2022/02/19 12:02:23;;;;;;;11.85;2.13;;;21.70;99.90;;;;;;5072821;28;20070;-74
2022/02/19 12:05:21;;;;;;;7.85;1.73;;;21.70;99.90;;;;;;5073851;28;20070;-75
2022/02/19 12:07:59;;;;;;;7.93;1.70;;;21.80;99.90;;;;;;5074200;28;20017;-76
2022/02/19 12:10:27;;;;;;;7.03;1.67;;;21.80;99.90;;;;;;5074021;28;20095;-75
2022/02/19 12:13:08;;;;;;;10.25;2.20;;;21.70;99.90;;;;;;5072443;28;20477;-75
2022/02/19 12:15:37;;;;;;;8.90;1.80;;;21.70;99.90;;;;;;5072537;28;20020;-75
2022/02/19 12:18:09;;;;;;;11.38;1.80;;;21.70;99.90;;;;;;5072687;28;20029;-75
2022/02/19 12:20:38;;;;;;;8.63;1.92;;;21.80;99.90;;;;;;5072549;28;20030;-75
2022/02/19 12:23:08;;;;;;;10.35;1.90;;;21.70;99.90;;;;;;5073755;28;20024;-75
2022/02/19 12:25:53;;;;;;;;;;;21.70;99.90;;;;;;5073526;28;20032;-75
2022/02/19 12:28:21;;;;;;;12.18;2.50;;;21.70;99.90;;;;;;5072336;28;19904;-75
2022/02/19 12:31:12;;;;;;;9.52;2.45;;;21.70;99.90;;;;;;5073552;28;20500;-75
2022/02/19 12:33:40;;;;;;;13.35;1.98;;;21.70;99.90;;;;;;5073678;28;20383;-75
2022/02/19 12:36:11;;;;;;;13.75;2.10;;;21.70;99.90;;;;;;5073522;28;20020;-75
2022/02/19 12:38:44;;;;;;;10.93;1.65;;;21.70;99.90;;;;;;5073499;28;20091;-75
2022/02/19 12:41:11;;;;;;;9.93;2.17;;;21.60;99.90;;;;;;5073438;28;20021;-75
2022/02/19 12:43:38;;;;;;;9.07;1.80;;;21.60;99.90;;;;;;5073361;28;20390;-75
2022/02/19 12:46:06;;;;;;;10.50;2.20;;;21.60;99.90;;;;;;5071887;28;20027;-75
2022/02/19 12:48:34;;;;;;;7.55;1.50;;;21.70;99.90;;;;;;5073286;28;20032;-75
2022/02/19 12:51:02;;;;;;;7.10;1.50;;;21.60;99.90;;;;;;5071980;28;20027;-75
2022/02/19 12:53:29;;;;;;;9.50;2.60;;;21.60;99.90;;;;;;5073371;28;20119;-75
2022/02/19 12:55:58;;;;;;;10.38;1.92;;;21.60;99.90;;;;;;5073620;28;20092;-76
2022/02/19 12:58:26;;;;;;;11.23;2.03;;;21.60;99.90;;;;;;5072125;28;20485;-76
2022/02/19 13:00:55;;;;;;;8.73;2.03;;;21.60;99.90;;;;;;5071963;28;20158;-75